createdAt,value
2023-02-14T00:00:00.000Z,58.84
2023-02-14T00:15:00.000Z,56.22
2023-02-14T00:30:00.000Z,51.32
2023-02-14T00:45:00.000Z,46.29
2023-02-14T01:00:00.000Z,44.88
2023-02-14T01:15:00.000Z,43.72
2023-02-14T01:30:00.000Z,44.22
2023-02-14T01:45:00.000Z,42.36
2023-02-14T02:00:00.000Z,42.36
2023-02-14T02:15:00.000Z,41.25
2023-02-14T02:30:00.000Z,41.85
2023-02-14T02:45:00.000Z,41.8
2023-02-14T03:00:00.000Z,43.51
2023-02-14T03:15:00.000Z,58.28
2023-02-14T03:30:00.000Z,46.18
2023-02-14T03:45:00.000Z,45.81
2023-02-14T04:00:00.000Z,45.37
2023-02-14T04:15:00.000Z,43.69
2023-02-14T04:30:00.000Z,43.89
2023-02-14T04:45:00.000Z,44.06
2023-02-14T05:00:00.000Z,44.51
2023-02-14T05:15:00.000Z,44.54
2023-02-14T05:30:00.000Z,44.86
2023-02-14T05:45:00.000Z,44.12
2023-02-14T06:00:00.000Z,46.67
2023-02-14T06:15:00.000Z,46.49
2023-02-14T06:30:00.000Z,48.39
2023-02-14T06:45:00.000Z,59.26
2023-02-14T07:00:00.000Z,58.61
2023-02-14T07:15:00.000Z,50.96
2023-02-14T07:30:00.000Z,45.02
2023-02-14T07:45:00.000Z,42.76
2023-02-14T08:00:00.000Z,41.56
2023-02-14T08:15:00.000Z,42.41
2023-02-14T08:30:00.000Z,50.29
2023-02-14T08:45:00.000Z,53.69
2023-02-14T09:00:00.000Z,64.78
2023-02-14T09:15:00.000Z,67.58
2023-02-14T09:30:00.000Z,73.76
2023-02-14T09:45:00.000Z,71.76
2023-02-14T10:00:00.000Z,66.15
2023-02-14T10:15:00.000Z,53.74
2023-02-14T10:30:00.000Z,50.98
2023-02-14T10:45:00.000Z,63.18
2023-02-14T11:00:00.000Z,41.29
2023-02-14T11:15:00.000Z,39.94
2023-02-14T11:30:00.000Z,38.04
2023-02-14T11:45:00.000Z,37.19
2023-02-14T12:00:00.000Z,37.98
2023-02-14T12:15:00.000Z,37.62
2023-02-14T12:30:00.000Z,37.74
2023-02-14T12:45:00.000Z,38.14
2023-02-14T13:00:00.000Z,38.85
2023-02-14T13:15:00.000Z,41.07
2023-02-14T13:30:00.000Z,40.22
2023-02-14T13:45:00.000Z,39.38
2023-02-14T14:00:00.000Z,38.46
2023-02-14T14:15:00.000Z,37.67
2023-02-14T14:30:00.000Z,39.84
2023-02-14T14:45:00.000Z,41.55
2023-02-14T15:00:00.000Z,39.56
2023-02-14T15:15:00.000Z,40.79
2023-02-14T15:30:00.000Z,44.73
2023-02-14T15:45:00.000Z,41.32
2023-02-14T16:00:00.000Z,44.26
2023-02-14T16:15:00.000Z,43.52
2023-02-14T16:30:00.000Z,45.87
2023-02-14T16:45:00.000Z,53.29
2023-02-14T17:00:00.000Z,48.08
2023-02-14T17:15:00.000Z,44.42
2023-02-14T17:30:00.000Z,44.74
2023-02-14T17:45:00.000Z,46.57
2023-02-14T18:00:00.000Z,50.74
2023-02-14T18:15:00.000Z,50.27
2023-02-14T18:30:00.000Z,49.95
2023-02-14T18:45:00.000Z,52.44
2023-02-14T19:00:00.000Z,50.73
2023-02-14T19:15:00.000Z,53.86
2023-02-14T19:30:00.000Z,55.54
2023-02-14T19:45:00.000Z,54.64
2023-02-14T20:00:00.000Z,58.75
2023-02-14T20:15:00.000Z,64.26
2023-02-14T20:30:00.000Z,57.4
2023-02-14T20:45:00.000Z,46.01
2023-02-14T21:00:00.000Z,47.07
2023-02-14T21:15:00.000Z,45.4
2023-02-14T21:30:00.000Z,44.99
2023-02-14T21:45:00.000Z,47.74
2023-02-14T22:00:00.000Z,61.05
2023-02-14T22:15:00.000Z,62.8
2023-02-14T22:30:00.000Z,50.14
2023-02-14T22:45:00.000Z,50.72
2023-02-14T23:00:00.000Z,48.75
2023-02-14T23:15:00.000Z,47.67
2023-02-14T23:30:00.000Z,42.96
2023-02-14T23:45:00.000Z,41.75
